Matthew, Kentucky
Current Conditions -  °F | °C
As of 2:53 PM on Wednesday 26 Nov 2014 (Local Time) from KJKL Reporting Station
Scattered Clouds Scattered Clouds  
Wind Chill: 47°   Ceiling: Unl
Heat Index: 49°   Visibility: 10mi
Dew Point: 27°   Wind: 5mph
Humidity: 43%   Direction: 230°SW
Pressure: 29.98"   Gusts: NA
Location:  37.937°N, 83.2694°W
Report Text: KJKL 261953Z AUTO 23004KT 10SM SCT039 09/M03 A2998 RMK AO2 SLP156 T00941028
Loading
Personal Weather Stations






























Interactive Weather Map New forecast layout! Learn more

10-Day Weather Forecast

Advertisements
Track Severe Weather on mobile